createdAt,value
2022-10-22T00:00:01.398Z,10.70
2022-10-22T00:02:28.170Z,10.90
2022-10-22T00:04:56.783Z,12.10
2022-10-22T00:07:24.024Z,10.03
2022-10-22T00:09:50.607Z,10.20
2022-10-22T00:12:17.482Z,10.60
2022-10-22T00:14:44.182Z,11.20
2022-10-22T00:17:11.717Z,11.50
2022-10-22T00:19:39.369Z,11.60
2022-10-22T00:22:06.920Z,12.20
2022-10-22T00:24:34.590Z,11.80
2022-10-22T00:27:01.717Z,10.67
2022-10-22T00:29:28.399Z,10.87
2022-10-22T00:34:23.506Z,10.50
2022-10-22T00:36:51.123Z,11.23
2022-10-22T00:39:20.537Z,11.50
2022-10-22T00:41:48.615Z,10.53
2022-10-22T00:44:53.023Z,11.57
2022-10-22T00:47:22.432Z,11.80
2022-10-22T00:49:49.789Z,11.17
2022-10-22T00:52:16.471Z,12.70
2022-10-22T00:54:43.509Z,12.50
2022-10-22T00:57:10.602Z,11.90
2022-10-22T00:59:37.971Z,13.07
2022-10-22T01:02:04.605Z,11.50
2022-10-22T01:04:31.300Z,12.60
2022-10-22T01:06:58.052Z,11.40
2022-10-22T01:09:34.842Z,11.93
2022-10-22T01:12:15.505Z,11.33
2022-10-22T01:15:13.512Z,11.07
2022-10-22T01:18:00.911Z,11.80
2022-10-22T01:20:33.271Z,11.93
2022-10-22T01:23:23.993Z,12.17
2022-10-22T01:26:17.884Z,12.47
2022-10-22T01:28:47.477Z,11.87
2022-10-22T01:31:16.751Z,10.73
2022-10-22T01:33:45.805Z,11.70
2022-10-22T01:36:14.090Z,10.97
2022-10-22T01:38:42.581Z,11.93
2022-10-22T01:41:10.880Z,10.87
2022-10-22T01:43:37.496Z,10.27
2022-10-22T01:46:06.024Z,13.00
2022-10-22T01:48:51.560Z,12.00
2022-10-22T01:51:45.603Z,11.70
2022-10-22T01:54:30.064Z,10.60
2022-10-22T01:57:26.275Z,11.47
2022-10-22T02:00:10.595Z,13.13
2022-10-22T02:05:44.250Z,12.27
2022-10-22T02:08:28.118Z,11.90
2022-10-22T02:10:55.503Z,12.17
2022-10-22T02:13:27.182Z,12.20
2022-10-22T02:15:55.850Z,14.20
2022-10-22T02:18:26.489Z,13.90
2022-10-22T02:20:54.420Z,11.60
2022-10-22T02:23:22.209Z,11.53
2022-10-22T02:25:55.924Z,12.33
2022-10-22T02:28:39.488Z,12.43
2022-10-22T02:31:18.958Z,12.33
2022-10-22T02:33:53.271Z,12.00
2022-10-22T02:36:21.339Z,12.13
2022-10-22T02:38:51.293Z,12.40
2022-10-22T02:41:19.480Z,11.60
2022-10-22T02:43:53.035Z,11.90
2022-10-22T02:46:19.932Z,11.77
2022-10-22T02:48:46.507Z,12.03
2022-10-22T02:51:13.449Z,13.47
2022-10-22T02:53:40.168Z,13.53
2022-10-22T02:56:07.112Z,13.30
2022-10-22T02:58:34.091Z,12.17
2022-10-22T03:01:00.707Z,12.87
2022-10-22T03:03:27.375Z,13.70
2022-10-22T03:05:53.956Z,11.70
2022-10-22T03:08:20.615Z,14.47
2022-10-22T03:10:47.240Z,11.93
2022-10-22T03:13:14.155Z,10.60
2022-10-22T03:15:40.772Z,10.37
2022-10-22T03:18:07.395Z,10.43
2022-10-22T03:20:34.050Z,10.60
2022-10-22T03:23:01.932Z,11.10
2022-10-22T03:25:30.969Z,12.80
2022-10-22T03:28:02.617Z,13.47
2022-10-22T03:30:29.257Z,12.70
2022-10-22T03:32:55.835Z,12.43
2022-10-22T03:35:22.701Z,13.20
2022-10-22T03:37:49.715Z,12.17
2022-10-22T03:40:16.704Z,12.60
2022-10-22T03:42:43.767Z,14.27
2022-10-22T03:45:10.791Z,15.03
2022-10-22T03:47:37.740Z,11.73
2022-10-22T03:50:05.371Z,11.30
2022-10-22T03:52:37.250Z,10.33
2022-10-22T03:55:05.731Z,12.40
2022-10-22T03:57:32.387Z,14.20
2022-10-22T03:59:59.097Z,10.70
2022-10-22T04:02:25.711Z,14.00
2022-10-22T04:04:52.346Z,14.90
2022-10-22T04:07:18.943Z,15.67
2022-10-22T04:09:45.526Z,14.80
2022-10-22T04:12:12.115Z,14.60
2022-10-22T04:14:38.689Z,14.70
2022-10-22T04:17:05.278Z,17.07
2022-10-22T04:19:31.877Z,16.20
2022-10-22T04:21:59.742Z,16.73
2022-10-22T04:24:26.619Z,17.97
2022-10-22T04:26:56.307Z,17.10
2022-10-22T04:29:23.801Z,16.60
2022-10-22T04:31:50.445Z,16.97
2022-10-22T04:34:17.040Z,18.73
2022-10-22T04:36:43.987Z,18.07
2022-10-22T04:39:10.799Z,19.20
2022-10-22T04:41:39.189Z,17.60
2022-10-22T04:44:06.479Z,17.00
2022-10-22T04:46:35.204Z,17.97
2022-10-22T04:49:03.831Z,16.80
2022-10-22T04:51:31.220Z,17.80
2022-10-22T04:53:58.052Z,18.57
2022-10-22T04:56:27.592Z,18.67
2022-10-22T04:59:00.041Z,18.77
2022-10-22T05:01:32.521Z,16.90
2022-10-22T05:04:01.407Z,17.93
2022-10-22T05:06:30.103Z,20.60
2022-10-22T05:08:59.985Z,18.00
2022-10-22T05:11:33.810Z,17.77
2022-10-22T05:14:02.807Z,18.80
2022-10-22T05:16:30.349Z,18.60
2022-10-22T05:18:59.055Z,18.87
2022-10-22T05:21:26.228Z,17.27
2022-10-22T05:23:54.761Z,19.60
2022-10-22T05:26:22.740Z,18.00
2022-10-22T05:28:50.978Z,19.40
2022-10-22T05:31:19.275Z,20.00
2022-10-22T05:33:46.456Z,18.73
2022-10-22T05:36:19.424Z,18.00
2022-10-22T05:38:46.281Z,17.63
2022-10-22T05:41:23.876Z,18.17
2022-10-22T05:43:51.039Z,18.60
2022-10-22T05:46:22.733Z,18.50
2022-10-22T05:48:58.923Z,18.00
2022-10-22T05:51:28.439Z,17.07
2022-10-22T05:54:00.280Z,18.87
2022-10-22T05:56:28.747Z,18.30
2022-10-22T05:58:56.207Z,18.40
2022-10-22T06:01:31.432Z,18.60
2022-10-22T06:04:03.059Z,19.00
2022-10-22T06:06:37.519Z,18.80
2022-10-22T06:09:11.190Z,17.70
2022-10-22T06:11:37.826Z,18.73
2022-10-22T06:14:04.681Z,16.80
2022-10-22T06:16:32.422Z,19.00
2022-10-22T06:19:03.016Z,16.30
2022-10-22T06:21:31.011Z,18.40
2022-10-22T06:23:58.880Z,17.83
2022-10-22T06:26:26.073Z,17.70
2022-10-22T06:28:52.855Z,17.87
2022-10-22T06:31:19.618Z,17.83
2022-10-22T06:33:46.248Z,17.13
2022-10-22T06:36:18.517Z,17.27
2022-10-22T06:38:45.374Z,16.90
2022-10-22T06:41:14.962Z,17.80
2022-10-22T06:43:46.692Z,16.90
2022-10-22T06:46:17.540Z,16.83
2022-10-22T06:48:58.659Z,15.67
2022-10-22T06:51:26.267Z,15.87
2022-10-22T06:53:54.084Z,17.00
2022-10-22T06:56:22.541Z,16.70
2022-10-22T06:58:50.740Z,16.50
2022-10-22T07:01:19.595Z,15.10
2022-10-22T07:03:46.807Z,15.63
2022-10-22T07:06:15.112Z,15.37
2022-10-22T07:08:43.044Z,17.00
2022-10-22T07:11:14.981Z,16.83
2022-10-22T07:13:42.072Z,16.53
2022-10-22T07:16:09.653Z,14.37
2022-10-22T07:18:37.757Z,15.17
2022-10-22T07:21:06.041Z,15.47
2022-10-22T07:23:32.901Z,14.40
2022-10-22T07:26:02.302Z,14.23
2022-10-22T07:28:29.786Z,14.60
2022-10-22T07:30:56.714Z,12.90
2022-10-22T07:33:23.332Z,12.50
2022-10-22T07:35:49.959Z,12.90
2022-10-22T07:38:16.589Z,12.90
2022-10-22T07:40:43.217Z,12.30
2022-10-22T07:43:09.900Z,11.80
2022-10-22T07:45:36.485Z,10.13
2022-10-22T07:48:03.189Z,10.97
2022-10-22T07:50:29.853Z,9.90
2022-10-22T07:52:58.204Z,9.40
2022-10-22T07:55:25.754Z,9.03
2022-10-22T07:57:52.571Z,9.20
2022-10-22T08:00:23.040Z,7.43
2022-10-22T08:02:51.972Z,7.90
2022-10-22T08:05:18.643Z,5.60
2022-10-22T08:07:45.491Z,5.10
2022-10-22T08:10:13.057Z,4.80
2022-10-22T08:12:40.453Z,4.43
2022-10-22T08:15:08.487Z,4.30
2022-10-22T08:17:35.238Z,3.90
2022-10-22T08:20:01.908Z,4.40
2022-10-22T08:22:28.662Z,3.57
2022-10-22T08:24:55.257Z,3.07
2022-10-22T08:27:21.878Z,2.73
2022-10-22T08:29:48.508Z,2.90
2022-10-22T08:32:15.371Z,2.60
2022-10-22T08:34:41.999Z,2.80
2022-10-22T08:37:10.381Z,2.97
2022-10-22T08:39:36.964Z,3.20
2022-10-22T08:42:32.915Z,3.10
2022-10-22T08:45:15.828Z,2.53
2022-10-22T08:48:19.644Z,3.17
2022-10-22T08:50:49.811Z,2.97
2022-10-22T08:53:20.872Z,3.20
2022-10-22T08:55:47.991Z,3.30
2022-10-22T08:58:20.557Z,2.80
2022-10-22T09:00:59.568Z,3.30
2022-10-22T09:03:38.012Z,3.10
2022-10-22T09:06:18.668Z,3.37
2022-10-22T09:08:46.799Z,3.43
2022-10-22T09:11:13.363Z,3.50
2022-10-22T09:13:46.091Z,2.53
2022-10-22T09:16:24.907Z,3.00
2022-10-22T09:19:00.505Z,3.23
2022-10-22T09:21:55.016Z,2.60
2022-10-22T09:24:40.058Z,3.63
2022-10-22T09:27:23.622Z,2.37
2022-10-22T09:29:50.282Z,3.83
2022-10-22T09:32:17.751Z,3.33
2022-10-22T09:34:49.371Z,2.53
2022-10-22T09:37:24.648Z,2.60
2022-10-22T09:39:52.983Z,2.50
2022-10-22T09:42:20.725Z,2.60
2022-10-22T09:44:59.156Z,2.33
2022-10-22T09:47:42.891Z,3.00
2022-10-22T09:50:27.294Z,3.00
2022-10-22T09:53:05.801Z,2.20
2022-10-22T09:55:32.575Z,2.93
2022-10-22T09:58:01.080Z,2.63
2022-10-22T10:00:28.285Z,2.27
2022-10-22T10:02:57.927Z,2.53
2022-10-22T10:05:31.715Z,3.40
2022-10-22T10:07:59.561Z,2.50
2022-10-22T10:10:45.355Z,2.60
2022-10-22T10:13:38.370Z,2.70
2022-10-22T10:16:20.746Z,2.60
2022-10-22T10:18:53.221Z,3.20
2022-10-22T10:21:44.755Z,2.73
2022-10-22T10:24:11.284Z,2.20
2022-10-22T10:26:48.705Z,2.17
2022-10-22T10:29:22.391Z,2.20
2022-10-22T10:32:30.986Z,2.07
2022-10-22T10:35:26.925Z,2.50
2022-10-22T10:38:23.612Z,2.17
2022-10-22T10:41:03.797Z,1.90
2022-10-22T10:43:47.509Z,2.93
2022-10-22T10:46:54.291Z,2.43
2022-10-22T10:49:25.842Z,2.10
2022-10-22T10:52:11.408Z,2.13
2022-10-22T10:54:43.944Z,2.67
2022-10-22T10:57:19.471Z,2.80
2022-10-22T10:59:54.545Z,2.00
2022-10-22T11:02:58.760Z,2.57
2022-10-22T11:05:47.049Z,4.50
2022-10-22T11:08:31.668Z,3.50
2022-10-22T11:11:04.733Z,3.77
2022-10-22T11:13:47.447Z,2.40
2022-10-22T11:16:26.653Z,2.33
2022-10-22T11:19:07.289Z,3.00
2022-10-22T11:21:49.396Z,2.73
2022-10-22T11:24:22.700Z,2.30
2022-10-22T11:26:56.167Z,1.80
2022-10-22T11:29:30.682Z,2.17
2022-10-22T11:32:01.632Z,2.97
2022-10-22T11:34:46.992Z,2.10
2022-10-22T11:37:14.532Z,1.30
2022-10-22T11:40:02.538Z,1.67
2022-10-22T11:42:43.190Z,1.80
2022-10-22T11:45:15.773Z,1.60
2022-10-22T11:48:14.939Z,1.63
2022-10-22T11:50:42.486Z,1.60
2022-10-22T11:53:15.158Z,1.20
2022-10-22T11:55:46.323Z,1.37
2022-10-22T11:58:31.800Z,1.67
2022-10-22T12:01:01.399Z,1.87
2022-10-22T12:03:31.066Z,1.80
2022-10-22T12:06:12.680Z,1.87
2022-10-22T12:08:44.024Z,1.50
2022-10-22T12:11:10.631Z,1.53
2022-10-22T12:14:01.393Z,2.00
2022-10-22T12:16:56.151Z,1.43
2022-10-22T12:19:22.433Z,1.47
2022-10-22T12:21:57.816Z,1.10
2022-10-22T12:24:29.283Z,1.60
2022-10-22T12:26:55.926Z,2.93
2022-10-22T12:29:23.858Z,3.60
2022-10-22T12:31:50.967Z,1.20
2022-10-22T12:34:24.906Z,3.30
2022-10-22T12:36:53.966Z,1.80
2022-10-22T12:39:24.983Z,1.13
2022-10-22T12:41:53.780Z,2.47
2022-10-22T12:44:20.575Z,1.67
2022-10-22T12:46:51.811Z,0.87
2022-10-22T12:49:23.655Z,1.60
2022-10-22T12:51:50.288Z,1.23
2022-10-22T12:54:30.727Z,4.43
2022-10-22T12:56:58.553Z,1.73
2022-10-22T12:59:28.542Z,1.10
2022-10-22T13:01:56.342Z,1.50
2022-10-22T13:04:26.541Z,3.43
2022-10-22T13:07:15.960Z,1.80
2022-10-22T13:09:55.512Z,1.23
2022-10-22T13:12:36.346Z,1.07
2022-10-22T13:15:28.009Z,1.00
2022-10-22T13:18:05.212Z,1.00
2022-10-22T13:20:32.886Z,0.77
2022-10-22T13:23:04.629Z,0.90
2022-10-22T13:25:37.949Z,1.10
2022-10-22T13:28:10.422Z,0.70
2022-10-22T13:30:38.795Z,1.03
2022-10-22T13:33:19.828Z,1.00
2022-10-22T13:35:46.543Z,0.90
2022-10-22T13:38:18.271Z,0.70
2022-10-22T13:40:45.011Z,0.97
2022-10-22T13:43:11.590Z,0.90
2022-10-22T13:45:38.483Z,1.17
2022-10-22T13:48:05.299Z,1.10
2022-10-22T13:50:31.929Z,1.03
2022-10-22T13:52:59.125Z,1.17
2022-10-22T13:55:31.607Z,1.93
2022-10-22T13:58:11.067Z,1.37
2022-10-22T14:00:43.184Z,1.30
2022-10-22T14:03:13.344Z,1.00
2022-10-22T14:05:40.037Z,1.00
2022-10-22T14:08:18.729Z,1.70
2022-10-22T14:10:45.595Z,1.00
2022-10-22T14:13:14.246Z,1.10
2022-10-22T14:15:40.956Z,0.90
2022-10-22T14:18:12.128Z,1.13
2022-10-22T14:20:41.911Z,0.90
2022-10-22T14:25:47.724Z,0.87
2022-10-22T14:28:14.479Z,1.43
2022-10-22T14:30:41.563Z,1.30
2022-10-22T14:33:21.041Z,0.80
2022-10-22T14:35:48.646Z,1.23
2022-10-22T14:38:15.893Z,0.90
2022-10-22T14:40:43.652Z,1.83
2022-10-22T14:43:31.066Z,0.90
2022-10-22T14:45:58.383Z,1.40
2022-10-22T14:48:25.033Z,1.30
2022-10-22T14:50:51.868Z,2.10
2022-10-22T14:53:18.577Z,1.00
2022-10-22T14:55:47.057Z,1.23
2022-10-22T14:58:13.915Z,1.30
2022-10-22T15:00:42.331Z,1.80
2022-10-22T15:03:09.695Z,1.30
2022-10-22T15:05:41.987Z,1.50
2022-10-22T15:08:08.595Z,1.23
2022-10-22T15:10:35.294Z,1.37
2022-10-22T15:13:01.987Z,1.13
2022-10-22T15:15:32.766Z,1.00
2022-10-22T15:18:02.112Z,0.83
2022-10-22T15:20:28.819Z,0.90
2022-10-22T15:22:56.354Z,1.30
2022-10-22T15:25:23.069Z,0.80
2022-10-22T15:27:51.302Z,0.90
2022-10-22T15:30:20.707Z,1.43
2022-10-22T15:32:47.288Z,1.50
2022-10-22T15:35:13.979Z,3.60
2022-10-22T15:37:40.558Z,1.03
2022-10-22T15:40:08.503Z,1.10
2022-10-22T15:42:35.129Z,1.20
2022-10-22T15:45:02.186Z,2.43
2022-10-22T15:47:30.994Z,1.20
2022-10-22T15:49:58.094Z,1.20
2022-10-22T15:52:24.786Z,1.40
2022-10-22T15:54:51.372Z,1.37
2022-10-22T15:57:18.116Z,1.57
2022-10-22T15:59:45.056Z,1.90
2022-10-22T16:02:12.699Z,1.63
2022-10-22T16:04:39.457Z,1.70
2022-10-22T16:07:06.082Z,1.20
2022-10-22T16:09:32.838Z,1.40
2022-10-22T16:11:59.756Z,1.93
2022-10-22T16:14:28.502Z,3.87
2022-10-22T16:16:56.083Z,2.00
2022-10-22T16:19:24.196Z,2.23
2022-10-22T16:21:53.281Z,1.20
2022-10-22T16:24:20.631Z,1.40
2022-10-22T16:26:48.119Z,2.03
2022-10-22T16:29:14.757Z,2.57
2022-10-22T16:31:43.476Z,1.77
2022-10-22T16:34:10.308Z,1.90
2022-10-22T16:36:38.134Z,1.70
2022-10-22T16:39:05.548Z,1.90
2022-10-22T16:41:36.508Z,2.50
2022-10-22T16:44:06.178Z,2.30
2022-10-22T16:46:33.958Z,2.77
2022-10-22T16:49:00.592Z,2.30
2022-10-22T16:51:28.480Z,1.87
2022-10-22T16:53:56.990Z,2.43
2022-10-22T16:56:25.303Z,2.50
2022-10-22T16:58:54.629Z,2.50
2022-10-22T17:01:26.110Z,4.20
2022-10-22T17:03:54.599Z,4.70
2022-10-22T17:06:23.463Z,3.10
2022-10-22T17:08:50.438Z,3.47
2022-10-22T17:11:19.863Z,2.67
2022-10-22T17:13:52.471Z,2.60
2022-10-22T17:16:21.730Z,2.43
2022-10-22T17:18:48.366Z,1.80
2022-10-22T17:21:16.213Z,2.30
2022-10-22T17:23:43.173Z,2.87
2022-10-22T17:26:20.253Z,4.90
2022-10-22T17:28:47.225Z,2.20
2022-10-22T17:31:40.440Z,2.90
2022-10-22T17:34:10.460Z,3.00
2022-10-22T17:36:37.284Z,3.10
2022-10-22T17:39:08.072Z,3.30
2022-10-22T17:41:36.965Z,3.23
2022-10-22T17:44:06.028Z,3.10
2022-10-22T17:46:33.009Z,2.97
2022-10-22T17:49:07.778Z,3.13
2022-10-22T17:51:34.533Z,3.00
2022-10-22T17:54:03.437Z,5.77
2022-10-22T17:56:32.849Z,6.50
2022-10-22T17:59:02.296Z,6.00
2022-10-22T18:01:31.959Z,5.80
2022-10-22T18:04:01.259Z,5.80
2022-10-22T18:06:28.817Z,4.90
2022-10-22T18:08:55.647Z,6.57
2022-10-22T18:11:25.395Z,5.13
2022-10-22T18:13:55.093Z,5.80
2022-10-22T18:16:22.095Z,6.70
2022-10-22T18:18:50.226Z,7.80
2022-10-22T18:21:17.773Z,7.70
2022-10-22T18:23:44.967Z,6.07
2022-10-22T18:26:11.964Z,5.40
2022-10-22T18:28:38.553Z,4.10
2022-10-22T18:31:09.696Z,3.90
2022-10-22T18:33:37.732Z,4.67
2022-10-22T18:36:09.571Z,4.17
2022-10-22T18:38:40.156Z,5.30
2022-10-22T18:41:09.055Z,4.33
2022-10-22T18:43:36.359Z,4.10
2022-10-22T18:46:06.761Z,4.13
2022-10-22T18:48:35.065Z,5.93
2022-10-22T18:51:05.397Z,6.87
2022-10-22T18:53:32.103Z,5.90
2022-10-22T18:55:58.859Z,5.57
2022-10-22T18:58:25.564Z,5.10
2022-10-22T19:00:52.235Z,4.87
2022-10-22T19:03:18.960Z,4.40
2022-10-22T19:05:54.251Z,4.70
2022-10-22T19:08:22.156Z,4.03
2022-10-22T19:10:48.912Z,3.60
2022-10-22T19:13:17.412Z,3.37
2022-10-22T19:15:44.447Z,3.80
2022-10-22T19:18:12.724Z,4.00
2022-10-22T19:20:39.311Z,3.97
2022-10-22T19:23:07.222Z,4.40
2022-10-22T19:25:34.560Z,4.20
2022-10-22T19:28:01.332Z,4.43
2022-10-22T19:30:27.973Z,4.80
2022-10-22T19:32:54.580Z,4.30
2022-10-22T19:35:21.347Z,6.53
2022-10-22T19:37:48.638Z,6.40
2022-10-22T19:40:15.505Z,6.83
2022-10-22T19:42:44.261Z,5.77
2022-10-22T19:45:11.359Z,5.90
2022-10-22T19:47:37.985Z,5.77
2022-10-22T19:50:05.676Z,5.27
2022-10-22T19:52:33.123Z,5.80
2022-10-22T19:54:59.849Z,6.40
2022-10-22T19:57:26.433Z,5.30
2022-10-22T19:59:53.019Z,6.03
2022-10-22T20:02:19.731Z,5.47
2022-10-22T20:04:49.995Z,5.00
2022-10-22T20:07:16.959Z,4.83
2022-10-22T20:09:43.574Z,4.47
2022-10-22T20:12:10.175Z,4.80
2022-10-22T20:14:37.350Z,4.90
2022-10-22T20:17:04.194Z,4.43
2022-10-22T20:19:30.887Z,4.50
2022-10-22T20:24:29.013Z,3.77
2022-10-22T20:26:55.770Z,4.40
2022-10-22T20:29:22.529Z,4.10
2022-10-22T20:31:49.199Z,4.50
2022-10-22T20:34:16.121Z,5.03
2022-10-22T20:36:42.856Z,4.30
2022-10-22T20:39:13.070Z,4.27
2022-10-22T20:41:40.473Z,3.90
2022-10-22T20:44:11.319Z,4.47
2022-10-22T20:46:38.113Z,2.90
2022-10-22T20:49:08.684Z,3.83
2022-10-22T20:51:36.866Z,3.10
2022-10-22T20:54:05.029Z,3.47
2022-10-22T20:56:32.679Z,3.73
2022-10-22T20:59:05.766Z,3.10
2022-10-22T21:01:44.472Z,3.73
2022-10-22T21:04:11.368Z,3.17
2022-10-22T21:06:38.941Z,3.17
2022-10-22T21:09:06.437Z,4.77
2022-10-22T21:11:33.289Z,4.17
2022-10-22T21:13:59.932Z,3.90
2022-10-22T21:16:26.561Z,3.50
2022-10-22T21:18:53.203Z,3.90
2022-10-22T21:21:19.938Z,3.63
2022-10-22T21:23:46.646Z,5.17
2022-10-22T21:26:13.284Z,4.63
2022-10-22T21:28:39.910Z,5.03
2022-10-22T21:31:08.832Z,4.67
2022-10-22T21:33:39.752Z,4.07
2022-10-22T21:36:08.833Z,3.97
2022-10-22T21:38:36.995Z,5.63
2022-10-22T21:41:09.352Z,4.90
2022-10-22T21:43:40.480Z,4.03
2022-10-22T21:46:09.534Z,4.67
2022-10-22T21:48:37.607Z,4.90
2022-10-22T21:51:16.289Z,4.30
2022-10-22T21:53:43.359Z,4.03
2022-10-22T21:56:15.387Z,3.80
2022-10-22T21:58:42.568Z,4.60
2022-10-22T22:01:09.425Z,4.00
2022-10-22T22:03:36.273Z,3.83
2022-10-22T22:06:06.027Z,3.40
2022-10-22T22:08:33.985Z,3.37
2022-10-22T22:11:11.967Z,3.70
2022-10-22T22:13:39.137Z,4.33
2022-10-22T22:16:12.042Z,4.20
2022-10-22T22:18:40.181Z,4.03
2022-10-22T22:21:09.414Z,4.10
2022-10-22T22:23:38.585Z,4.33
2022-10-22T22:26:05.972Z,4.07
2022-10-22T22:28:33.299Z,4.07
2022-10-22T22:31:00.348Z,4.47
2022-10-22T22:33:27.624Z,3.90
2022-10-22T22:35:58.875Z,4.47
2022-10-22T22:38:25.481Z,4.63
2022-10-22T22:40:52.084Z,3.90
2022-10-22T22:43:18.717Z,4.30
2022-10-22T22:45:45.517Z,4.10
2022-10-22T22:48:12.137Z,3.73
2022-10-22T22:50:38.703Z,3.43
2022-10-22T22:53:05.302Z,3.47
2022-10-22T22:55:31.931Z,3.50
2022-10-22T22:57:58.837Z,3.60
2022-10-22T23:00:25.520Z,4.00
2022-10-22T23:02:55.860Z,3.53
2022-10-22T23:05:22.772Z,3.33
2022-10-22T23:07:49.393Z,2.63
2022-10-22T23:10:16.119Z,3.33
2022-10-22T23:12:43.227Z,3.27
2022-10-22T23:15:10.506Z,3.53
2022-10-22T23:17:37.194Z,3.17
2022-10-22T23:20:04.269Z,4.13
2022-10-22T23:22:30.852Z,3.17
2022-10-22T23:24:57.426Z,3.20
2022-10-22T23:27:24.021Z,3.73
2022-10-22T23:29:50.618Z,2.77
2022-10-22T23:32:17.215Z,3.40
2022-10-22T23:34:43.803Z,3.30
2022-10-22T23:37:12.169Z,3.40
2022-10-22T23:39:38.878Z,3.70
2022-10-22T23:42:05.487Z,3.50
2022-10-22T23:44:32.084Z,3.73
2022-10-22T23:46:58.694Z,3.60
2022-10-22T23:49:25.279Z,3.80
2022-10-22T23:51:51.916Z,3.03
2022-10-22T23:54:18.573Z,4.27
2022-10-22T23:56:45.840Z,3.60
